sensor_id;sensor_type;location;lat;lon;timestamp;pressure;altitude;pressure_sealevel;temperature;humidity
41688;BME280;27371;42.686;23.362;2023-01-30T00:00:50;162024.47;;;-0.68;76.81
41688;BME280;27371;42.686;23.362;2023-01-30T00:03:16;161991.31;;;-0.81;77.00
41688;BME280;27371;42.686;23.362;2023-01-30T00:05:42;161984.66;;;-0.83;77.51
41688;BME280;27371;42.686;23.362;2023-01-30T00:08:07;161975.41;;;-0.87;78.16
41688;BME280;27371;42.686;23.362;2023-01-30T00:10:32;161975.41;;;-0.87;78.38
41688;BME280;27371;42.686;23.362;2023-01-30T00:12:58;161968.78;;;-0.90;78.52
41688;BME280;27371;42.686;23.362;2023-01-30T00:15:23;161950.19;;;-0.97;78.73
41688;BME280;27371;42.686;23.362;2023-01-30T00:17:49;161982.03;;;-0.84;79.08
41688;BME280;27371;42.686;23.362;2023-01-30T00:20:14;161960.81;;;-0.93;79.11
41688;BME280;27371;42.686;23.362;2023-01-30T00:22:40;161970.09;;;-0.89;79.27
41688;BME280;27371;42.686;23.362;2023-01-30T00:25:05;161974.09;;;-0.87;78.95
41688;BME280;27371;42.686;23.362;2023-01-30T00:27:31;161979.41;;;-0.85;79.48
41688;BME280;27371;42.686;23.362;2023-01-30T00:29:56;161978.03;;;-0.86;79.55
41688;BME280;27371;42.686;23.362;2023-01-30T00:32:22;161853.41;;;-1.34;80.00
41688;BME280;27371;42.686;23.362;2023-01-30T00:34:50;161960.81;;;-0.93;79.85
41688;BME280;27371;42.686;23.362;2023-01-30T00:37:16;161936.97;;;-1.02;79.47
41688;BME280;27371;42.686;23.362;2023-01-30T00:39:41;161915.75;;;-1.10;79.68
41688;BME280;27371;42.686;23.362;2023-01-30T00:42:08;161909.13;;;-1.13;79.89
41688;BME280;27371;42.686;23.362;2023-01-30T00:44:52;161901.16;;;-1.16;79.89
41688;BME280;27371;42.686;23.362;2023-01-30T00:47:36;161893.16;;;-1.19;80.01
41688;BME280;27371;42.686;23.362;2023-01-30T00:50:02;161891.84;;;-1.19;80.52
41688;BME280;27371;42.686;23.362;2023-01-30T00:52:27;161903.78;;;-1.15;80.53
41688;BME280;27371;42.686;23.362;2023-01-30T00:54:53;161906.44;;;-1.14;80.50
41688;BME280;27371;42.686;23.362;2023-01-30T00:57:18;161895.84;;;-1.18;80.60
41688;BME280;27371;42.686;23.362;2023-01-30T00:59:44;161899.78;;;-1.16;80.64
41688;BME280;27371;42.686;23.362;2023-01-30T01:02:09;161889.22;;;-1.20;80.48
41688;BME280;27371;42.686;23.362;2023-01-30T01:04:35;161901.16;;;-1.16;80.53
41688;BME280;27371;42.686;23.362;2023-01-30T01:07:08;161886.56;;;-1.21;80.61
41688;BME280;27371;42.686;23.362;2023-01-30T01:09:34;161891.84;;;-1.19;80.70
41688;BME280;27371;42.686;23.362;2023-01-30T01:11:59;161887.91;;;-1.21;80.61
41688;BME280;27371;42.686;23.362;2023-01-30T01:14:25;161897.16;;;-1.17;80.73
41688;BME280;27371;42.686;23.362;2023-01-30T01:16:50;161890.53;;;-1.20;80.52
41688;BME280;27371;42.686;23.362;2023-01-30T01:19:16;161866.69;;;-1.29;80.70
41688;BME280;27371;42.686;23.362;2023-01-30T01:21:41;161870.63;;;-1.27;80.97
41688;BME280;27371;42.686;23.362;2023-01-30T01:24:13;161881.25;;;-1.23;81.42
41688;BME280;27371;42.686;23.362;2023-01-30T01:26:39;161864.00;;;-1.30;81.34
41688;BME280;27371;42.686;23.362;2023-01-30T01:29:06;161879.94;;;-1.24;81.40
41688;BME280;27371;42.686;23.362;2023-01-30T01:31:35;161873.31;;;-1.26;81.33
41688;BME280;27371;42.686;23.362;2023-01-30T01:34:01;161881.25;;;-1.23;81.22
41688;BME280;27371;42.686;23.362;2023-01-30T01:36:26;161860.06;;;-1.31;81.45
41688;BME280;27371;42.686;23.362;2023-01-30T01:38:51;161868.00;;;-1.28;81.47
41688;BME280;27371;42.686;23.362;2023-01-30T01:41:17;161846.78;;;-1.37;81.36
41688;BME280;27371;42.686;23.362;2023-01-30T01:49:02;161865.38;;;-1.29;81.20
41688;BME280;27371;42.686;23.362;2023-01-30T01:51:36;161864.00;;;-1.30;81.29
41688;BME280;27371;42.686;23.362;2023-01-30T01:54:08;161864.00;;;-1.30;81.02
41688;BME280;27371;42.686;23.362;2023-01-30T01:56:38;161864.00;;;-1.30;81.05
41688;BME280;27371;42.686;23.362;2023-01-30T01:59:33;161866.69;;;-1.29;80.92
41688;BME280;27371;42.686;23.362;2023-01-30T02:02:03;161864.00;;;-1.30;81.02
41688;BME280;27371;42.686;23.362;2023-01-30T02:04:31;161856.03;;;-1.33;80.97
41688;BME280;27371;42.686;23.362;2023-01-30T02:07:17;161854.72;;;-1.33;81.17
41688;BME280;27371;42.686;23.362;2023-01-30T02:09:44;161858.72;;;-1.32;81.07
41688;BME280;27371;42.686;23.362;2023-01-30T02:12:10;161854.72;;;-1.33;81.30
41688;BME280;27371;42.686;23.362;2023-01-30T02:14:39;161861.38;;;-1.31;81.09
41688;BME280;27371;42.686;23.362;2023-01-30T02:17:04;161803.03;;;-1.53;80.82
41688;BME280;27371;42.686;23.362;2023-01-30T02:22:38;161858.72;;;-1.32;80.90
41688;BME280;27371;42.686;23.362;2023-01-30T02:25:53;161858.72;;;-1.32;81.00
41688;BME280;27371;42.686;23.362;2023-01-30T02:44:51;161856.03;;;-1.33;80.27
41688;BME280;27371;42.686;23.362;2023-01-30T02:47:24;161837.53;;;-1.40;80.49
41688;BME280;27371;42.686;23.362;2023-01-30T02:50:20;161865.38;;;-1.29;80.35
41688;BME280;27371;42.686;23.362;2023-01-30T02:52:48;161821.56;;;-1.46;80.18
41688;BME280;27371;42.686;23.362;2023-01-30T02:55:26;161841.47;;;-1.39;80.00
41688;BME280;27371;42.686;23.362;2023-01-30T02:57:52;161854.72;;;-1.33;79.71
41688;BME280;27371;42.686;23.362;2023-01-30T03:00:22;161856.03;;;-1.33;79.94
41688;BME280;27371;42.686;23.362;2023-01-30T03:11:02;161864.00;;;-1.30;80.08
41688;BME280;27371;42.686;23.362;2023-01-30T03:13:45;161869.31;;;-1.28;79.96
41688;BME280;27371;42.686;23.362;2023-01-30T03:16:32;161890.53;;;-1.20;79.50
41688;BME280;27371;42.686;23.362;2023-01-30T03:19:02;161907.75;;;-1.13;79.20
41688;BME280;27371;42.686;23.362;2023-01-30T03:21:28;161919.69;;;-1.08;79.10
41688;BME280;27371;42.686;23.362;2023-01-30T03:23:54;161932.97;;;-1.03;78.95
41688;BME280;27371;42.686;23.362;2023-01-30T03:26:25;161935.59;;;-1.02;78.63
41688;BME280;27371;42.686;23.362;2023-01-30T03:28:51;161942.22;;;-1.00;78.57
41688;BME280;27371;42.686;23.362;2023-01-30T03:31:17;161939.59;;;-1.01;78.31
41688;BME280;27371;42.686;23.362;2023-01-30T03:33:43;161918.38;;;-1.09;77.32
41688;BME280;27371;42.686;23.362;2023-01-30T03:36:09;161870.63;;;-1.27;77.22
41688;BME280;27371;42.686;23.362;2023-01-30T03:38:35;161840.16;;;-1.39;78.24
41688;BME280;27371;42.686;23.362;2023-01-30T03:41:01;161828.19;;;-1.44;78.77
41688;BME280;27371;42.686;23.362;2023-01-30T03:43:27;161846.78;;;-1.37;79.25
41688;BME280;27371;42.686;23.362;2023-01-30T03:45:53;161858.72;;;-1.32;79.63
41688;BME280;27371;42.686;23.362;2023-01-30T03:48:18;161864.00;;;-1.30;79.77
41688;BME280;27371;42.686;23.362;2023-01-30T03:50:44;161860.06;;;-1.31;79.66
41688;BME280;27371;42.686;23.362;2023-01-30T03:53:09;161848.09;;;-1.36;79.37
41688;BME280;27371;42.686;23.362;2023-01-30T03:55:35;161846.78;;;-1.37;79.56
41688;BME280;27371;42.686;23.362;2023-01-30T03:58:01;161826.88;;;-1.44;79.68
41688;BME280;27371;42.686;23.362;2023-01-30T04:00:26;161842.78;;;-1.38;79.28
41688;BME280;27371;42.686;23.362;2023-01-30T04:02:52;161846.78;;;-1.37;79.41
41688;BME280;27371;42.686;23.362;2023-01-30T04:05:19;161848.09;;;-1.36;79.65
41688;BME280;27371;42.686;23.362;2023-01-30T04:07:45;161844.16;;;-1.38;79.74
41688;BME280;27371;42.686;23.362;2023-01-30T04:10:10;161829.56;;;-1.43;79.64
41688;BME280;27371;42.686;23.362;2023-01-30T04:12:36;161846.78;;;-1.37;80.04
41688;BME280;27371;42.686;23.362;2023-01-30T04:15:01;161844.16;;;-1.38;79.66
41688;BME280;27371;42.686;23.362;2023-01-30T04:17:27;161833.53;;;-1.42;79.82
41688;BME280;27371;42.686;23.362;2023-01-30T04:19:52;161791.09;;;-1.58;79.98
41688;BME280;27371;42.686;23.362;2023-01-30T04:22:18;161841.47;;;-1.39;80.01
41688;BME280;27371;42.686;23.362;2023-01-30T04:24:43;161845.47;;;-1.37;79.87
41688;BME280;27371;42.686;23.362;2023-01-30T04:27:09;161834.84;;;-1.41;79.79
41688;BME280;27371;42.686;23.362;2023-01-30T04:29:34;161825.56;;;-1.45;79.82
41688;BME280;27371;42.686;23.362;2023-01-30T04:32:00;161844.16;;;-1.38;79.74
41688;BME280;27371;42.686;23.362;2023-01-30T04:34:25;161841.47;;;-1.39;79.91
41688;BME280;27371;42.686;23.362;2023-01-30T04:36:51;161834.84;;;-1.41;80.08
41688;BME280;27371;42.686;23.362;2023-01-30T04:39:16;161832.19;;;-1.42;79.90
41688;BME280;27371;42.686;23.362;2023-01-30T04:41:42;161837.53;;;-1.40;80.35
41688;BME280;27371;42.686;23.362;2023-01-30T04:44:07;161837.53;;;-1.40;80.11
41688;BME280;27371;42.686;23.362;2023-01-30T04:46:33;161830.88;;;-1.43;80.46
41688;BME280;27371;42.686;23.362;2023-01-30T04:48:58;161833.53;;;-1.42;80.33
41688;BME280;27371;42.686;23.362;2023-01-30T04:51:24;161833.53;;;-1.42;80.28
41688;BME280;27371;42.686;23.362;2023-01-30T04:53:49;161846.78;;;-1.37;80.37
41688;BME280;27371;42.686;23.362;2023-01-30T04:56:15;161848.09;;;-1.36;80.51
41688;BME280;27371;42.686;23.362;2023-01-30T04:58:41;161836.16;;;-1.41;80.35
41688;BME280;27371;42.686;23.362;2023-01-30T05:03:49;161807.00;;;-1.52;80.43
41688;BME280;27371;42.686;23.362;2023-01-30T05:06:15;161809.69;;;-1.51;81.19
41688;BME280;27371;42.686;23.362;2023-01-30T05:08:41;161829.56;;;-1.43;80.83
41688;BME280;27371;42.686;23.362;2023-01-30T05:11:06;161832.19;;;-1.42;80.68
41688;BME280;27371;42.686;23.362;2023-01-30T05:13:32;162021.81;;;-0.69;88.67
41688;BME280;27371;42.686;23.362;2023-01-30T05:15:59;162028.44;;;-0.67;82.75
41688;BME280;27371;42.686;23.362;2023-01-30T05:18:24;161958.19;;;-0.94;80.67
41688;BME280;27371;42.686;23.362;2023-01-30T05:20:49;161939.59;;;-1.01;80.17
41688;BME280;27371;42.686;23.362;2023-01-30T05:23:15;161911.75;;;-1.12;80.00
41688;BME280;27371;42.686;23.362;2023-01-30T05:25:41;161913.06;;;-1.11;79.90
41688;BME280;27371;42.686;23.362;2023-01-30T05:28:06;161898.47;;;-1.17;80.17
41688;BME280;27371;42.686;23.362;2023-01-30T05:30:32;161905.13;;;-1.14;80.91
41688;BME280;27371;42.686;23.362;2023-01-30T05:32:57;161906.44;;;-1.14;80.96
41688;BME280;27371;42.686;23.362;2023-01-30T05:35:23;161910.44;;;-1.12;81.12
41688;BME280;27371;42.686;23.362;2023-01-30T05:37:49;161914.38;;;-1.10;81.38
41688;BME280;27371;42.686;23.362;2023-01-30T05:40:15;161923.69;;;-1.07;81.52
41688;BME280;27371;42.686;23.362;2023-01-30T05:42:41;161902.47;;;-1.15;81.34
41688;BME280;27371;42.686;23.362;2023-01-30T05:45:07;161902.47;;;-1.15;81.42
41688;BME280;27371;42.686;23.362;2023-01-30T05:47:32;161882.56;;;-1.23;81.93
41688;BME280;27371;42.686;23.362;2023-01-30T05:49:58;161903.78;;;-1.15;81.92
41688;BME280;27371;42.686;23.362;2023-01-30T05:52:23;161915.75;;;-1.10;82.03
41688;BME280;27371;42.686;23.362;2023-01-30T05:54:49;161910.44;;;-1.12;81.60
41688;BME280;27371;42.686;23.362;2023-01-30T05:57:14;161915.75;;;-1.10;81.95
41688;BME280;27371;42.686;23.362;2023-01-30T05:59:40;161923.69;;;-1.07;81.75
41688;BME280;27371;42.686;23.362;2023-01-30T06:02:05;161914.38;;;-1.10;81.62
41688;BME280;27371;42.686;23.362;2023-01-30T06:04:31;161898.47;;;-1.17;81.44
41688;BME280;27371;42.686;23.362;2023-01-30T06:06:56;161905.13;;;-1.14;81.34
41688;BME280;27371;42.686;23.362;2023-01-30T06:09:21;161915.75;;;-1.10;81.64
41688;BME280;27371;42.686;23.362;2023-01-30T06:11:47;161928.97;;;-1.05;81.42
41688;BME280;27371;42.686;23.362;2023-01-30T06:14:12;161926.34;;;-1.06;81.49
41688;BME280;27371;42.686;23.362;2023-01-30T06:16:38;161926.34;;;-1.06;81.75
41688;BME280;27371;42.686;23.362;2023-01-30T06:19:03;161914.38;;;-1.10;81.81
41688;BME280;27371;42.686;23.362;2023-01-30T06:21:29;161915.75;;;-1.10;81.49
41688;BME280;27371;42.686;23.362;2023-01-30T06:23:55;161913.06;;;-1.11;81.67
41688;BME280;27371;42.686;23.362;2023-01-30T06:26:20;161895.84;;;-1.18;81.70
41688;BME280;27371;42.686;23.362;2023-01-30T06:28:46;161909.13;;;-1.13;81.64
41688;BME280;27371;42.686;23.362;2023-01-30T06:31:12;161906.44;;;-1.14;81.88
41688;BME280;27371;42.686;23.362;2023-01-30T06:33:38;161901.16;;;-1.16;81.89
41688;BME280;27371;42.686;23.362;2023-01-30T06:36:03;161915.75;;;-1.10;81.84
41688;BME280;27371;42.686;23.362;2023-01-30T06:38:29;161927.66;;;-1.05;82.09
41688;BME280;27371;42.686;23.362;2023-01-30T06:40:54;161938.28;;;-1.01;82.21
41688;BME280;27371;42.686;23.362;2023-01-30T06:43:20;161936.97;;;-1.02;81.81
41688;BME280;27371;42.686;23.362;2023-01-30T06:45:45;161910.44;;;-1.12;81.14
41688;BME280;27371;42.686;23.362;2023-01-30T06:48:11;161889.22;;;-1.20;81.00
41688;BME280;27371;42.686;23.362;2023-01-30T06:50:37;161882.56;;;-1.23;81.52
41688;BME280;27371;42.686;23.362;2023-01-30T06:53:05;161893.16;;;-1.19;81.45
41688;BME280;27371;42.686;23.362;2023-01-30T06:55:32;161889.22;;;-1.20;81.72
41688;BME280;27371;42.686;23.362;2023-01-30T07:00:31;161902.47;;;-1.15;81.67
41688;BME280;27371;42.686;23.362;2023-01-30T07:02:57;161891.84;;;-1.19;82.26
41688;BME280;27371;42.686;23.362;2023-01-30T07:05:23;161897.16;;;-1.17;81.98
41688;BME280;27371;42.686;23.362;2023-01-30T07:07:49;161887.91;;;-1.21;81.90
41688;BME280;27371;42.686;23.362;2023-01-30T07:10:14;161893.16;;;-1.19;81.57
41688;BME280;27371;42.686;23.362;2023-01-30T07:12:40;161897.16;;;-1.17;81.09
41688;BME280;27371;42.686;23.362;2023-01-30T07:15:06;161905.13;;;-1.14;81.29
41688;BME280;27371;42.686;23.362;2023-01-30T07:17:32;161899.78;;;-1.16;81.10
41688;BME280;27371;42.686;23.362;2023-01-30T07:19:57;161902.47;;;-1.15;81.15
41688;BME280;27371;42.686;23.362;2023-01-30T07:22:23;161902.47;;;-1.15;81.24
41688;BME280;27371;42.686;23.362;2023-01-30T07:24:48;161902.47;;;-1.15;81.01
41688;BME280;27371;42.686;23.362;2023-01-30T07:27:14;161910.44;;;-1.12;81.12
41688;BME280;27371;42.686;23.362;2023-01-30T07:29:39;161903.78;;;-1.15;80.95
41688;BME280;27371;42.686;23.362;2023-01-30T07:32:06;161910.44;;;-1.12;80.63
41688;BME280;27371;42.686;23.362;2023-01-30T07:34:32;161897.16;;;-1.17;80.95
41688;BME280;27371;42.686;23.362;2023-01-30T07:36:58;161921.00;;;-1.08;80.71
41688;BME280;27371;42.686;23.362;2023-01-30T07:39:23;161943.59;;;-0.99;80.90
41688;BME280;27371;42.686;23.362;2023-01-30T07:41:49;161988.69;;;-0.82;80.83
41688;BME280;27371;42.686;23.362;2023-01-30T07:44:14;162020.47;;;-0.70;80.14
41688;BME280;27371;42.686;23.362;2023-01-30T07:46:40;162052.34;;;-0.57;79.29
41688;BME280;27371;42.686;23.362;2023-01-30T07:49:06;162072.25;;;-0.50;78.61
41688;BME280;27371;42.686;23.362;2023-01-30T07:51:33;162097.44;;;-0.40;78.21
41688;BME280;27371;42.686;23.362;2023-01-30T07:53:59;162138.59;;;-0.24;77.75
41688;BME280;27371;42.686;23.362;2023-01-30T07:56:29;162147.84;;;-0.20;77.37
41688;BME280;27371;42.686;23.362;2023-01-30T07:58:55;162158.50;;;-0.16;77.23
41688;BME280;27371;42.686;23.362;2023-01-30T08:01:21;162153.16;;;-0.18;76.65
41688;BME280;27371;42.686;23.362;2023-01-30T08:03:47;162127.94;;;-0.28;76.19
41688;BME280;27371;42.686;23.362;2023-01-30T08:06:14;162069.56;;;-0.51;75.78
41688;BME280;27371;42.686;23.362;2023-01-30T08:08:40;162049.66;;;-0.58;76.76
41688;BME280;27371;42.686;23.362;2023-01-30T08:11:06;162028.44;;;-0.67;77.26
41688;BME280;27371;42.686;23.362;2023-01-30T08:13:31;162004.56;;;-0.76;78.05
41688;BME280;27371;42.686;23.362;2023-01-30T08:16:05;162025.81;;;-0.68;77.79
41688;BME280;27371;42.686;23.362;2023-01-30T08:18:31;162027.13;;;-0.67;77.89
41688;BME280;27371;42.686;23.362;2023-01-30T08:21:03;162037.75;;;-0.63;78.34
41688;BME280;27371;42.686;23.362;2023-01-30T08:23:30;162037.75;;;-0.63;78.23
41688;BME280;27371;42.686;23.362;2023-01-30T08:25:57;162032.44;;;-0.65;78.37
41688;BME280;27371;42.686;23.362;2023-01-30T08:28:24;162033.75;;;-0.64;78.60
41688;BME280;27371;42.686;23.362;2023-01-30T08:30:50;162040.38;;;-0.62;78.91
41688;BME280;27371;42.686;23.362;2023-01-30T08:33:18;162061.63;;;-0.54;79.16
41688;BME280;27371;42.686;23.362;2023-01-30T08:35:44;162064.25;;;-0.53;78.93
41688;BME280;27371;42.686;23.362;2023-01-30T08:38:09;162072.25;;;-0.50;78.29
41688;BME280;27371;42.686;23.362;2023-01-30T08:40:35;162077.53;;;-0.48;78.45
41688;BME280;27371;42.686;23.362;2023-01-30T08:43:01;162073.56;;;-0.49;77.90
41688;BME280;27371;42.686;23.362;2023-01-30T08:45:27;162073.56;;;-0.49;77.71
41688;BME280;27371;42.686;23.362;2023-01-30T08:47:57;162072.25;;;-0.50;77.92
41688;BME280;27371;42.686;23.362;2023-01-30T08:50:22;162073.56;;;-0.49;77.89
41688;BME280;27371;42.686;23.362;2023-01-30T08:52:48;162088.16;;;-0.43;77.72
41688;BME280;27371;42.686;23.362;2023-01-30T08:55:13;162078.84;;;-0.47;77.08
41688;BME280;27371;42.686;23.362;2023-01-30T08:57:39;162064.25;;;-0.53;77.45
41688;BME280;27371;42.686;23.362;2023-01-30T09:00:05;162088.16;;;-0.43;77.54
41688;BME280;27371;42.686;23.362;2023-01-30T09:02:30;162078.84;;;-0.47;76.24
41688;BME280;27371;42.686;23.362;2023-01-30T09:04:56;162068.25;;;-0.51;76.65
41688;BME280;27371;42.686;23.362;2023-01-30T09:07:21;162073.56;;;-0.49;76.72
41688;BME280;27371;42.686;23.362;2023-01-30T09:09:47;162093.44;;;-0.41;76.44
41688;BME280;27371;42.686;23.362;2023-01-30T09:12:13;162104.06;;;-0.37;76.71
41688;BME280;27371;42.686;23.362;2023-01-30T09:14:38;162105.38;;;-0.37;76.16
41688;BME280;27371;42.686;23.362;2023-01-30T09:17:04;162101.44;;;-0.38;75.50
41688;BME280;27371;42.686;23.362;2023-01-30T09:19:30;162086.84;;;-0.44;75.59
41688;BME280;27371;42.686;23.362;2023-01-30T09:21:55;162086.84;;;-0.44;76.01
41688;BME280;27371;42.686;23.362;2023-01-30T09:24:22;162098.75;;;-0.39;75.75
41688;BME280;27371;42.686;23.362;2023-01-30T09:26:52;162097.44;;;-0.40;75.62
41688;BME280;27371;42.686;23.362;2023-01-30T09:29:18;162081.53;;;-0.46;75.00
41688;BME280;27371;42.686;23.362;2023-01-30T09:31:44;162061.63;;;-0.54;75.31
41688;BME280;27371;42.686;23.362;2023-01-30T09:34:09;162051.03;;;-0.58;75.36
41688;BME280;27371;42.686;23.362;2023-01-30T09:36:34;162033.75;;;-0.64;76.03
41688;BME280;27371;42.686;23.362;2023-01-30T09:39:00;162053.66;;;-0.57;76.17
41688;BME280;27371;42.686;23.362;2023-01-30T09:41:47;162069.56;;;-0.51;76.39
41688;BME280;27371;42.686;23.362;2023-01-30T09:44:50;162092.13;;;-0.42;76.86
41688;BME280;27371;42.686;23.362;2023-01-30T09:47:27;162098.75;;;-0.39;76.98
41688;BME280;27371;42.686;23.362;2023-01-30T09:52:57;162088.16;;;-0.43;75.65
41688;BME280;27371;42.686;23.362;2023-01-30T09:55:27;162086.84;;;-0.44;75.92
41688;BME280;27371;42.686;23.362;2023-01-30T09:57:57;162084.16;;;-0.45;75.95
41688;BME280;27371;42.686;23.362;2023-01-30T10:03:10;162097.44;;;-0.40;76.01
41688;BME280;27371;42.686;23.362;2023-01-30T10:05:50;162100.06;;;-0.39;76.13
41688;BME280;27371;42.686;23.362;2023-01-30T10:11:19;162085.47;;;-0.45;76.08
41688;BME280;27371;42.686;23.362;2023-01-30T10:16:38;162082.84;;;-0.46;76.61
41688;BME280;27371;42.686;23.362;2023-01-30T10:22:22;162088.16;;;-0.43;76.83
41688;BME280;27371;42.686;23.362;2023-01-30T10:28:10;162098.75;;;-0.39;76.47
41688;BME280;27371;42.686;23.362;2023-01-30T10:30:33;162106.72;;;-0.36;76.28
41688;BME280;27371;42.686;23.362;2023-01-30T10:33:04;162096.13;;;-0.40;74.63
41688;BME280;27371;42.686;23.362;2023-01-30T10:35:34;162056.31;;;-0.56;74.76
41688;BME280;27371;42.686;23.362;2023-01-30T10:38:06;162097.44;;;-0.40;74.63
41688;BME280;27371;42.686;23.362;2023-01-30T10:40:53;162093.44;;;-0.41;73.69
41688;BME280;27371;42.686;23.362;2023-01-30T10:43:28;162084.16;;;-0.45;73.65
41688;BME280;27371;42.686;23.362;2023-01-30T10:53:55;162093.44;;;-0.41;72.83
41688;BME280;27371;42.686;23.362;2023-01-30T10:57:14;162100.06;;;-0.39;72.45
41688;BME280;27371;42.686;23.362;2023-01-30T11:04:59;162106.72;;;-0.36;72.47
41688;BME280;27371;42.686;23.362;2023-01-30T11:07:32;162106.72;;;-0.36;72.45
41688;BME280;27371;42.686;23.362;2023-01-30T11:09:58;162093.44;;;-0.41;72.34
41688;BME280;27371;42.686;23.362;2023-01-30T11:12:24;162137.25;;;-0.25;72.17
41688;BME280;27371;42.686;23.362;2023-01-30T11:14:58;162143.91;;;-0.22;72.24
41688;BME280;27371;42.686;23.362;2023-01-30T11:17:50;162155.81;;;-0.17;72.05
41688;BME280;27371;42.686;23.362;2023-01-30T11:20:27;162162.44;;;-0.15;72.37
41688;BME280;27371;42.686;23.362;2023-01-30T11:23:05;162170.41;;;-0.12;71.78
41688;BME280;27371;42.686;23.362;2023-01-30T11:25:30;162165.06;;;-0.14;71.71
41688;BME280;27371;42.686;23.362;2023-01-30T11:28:01;162187.69;;;-0.05;71.48
41688;BME280;27371;42.686;23.362;2023-01-30T11:30:36;162173.09;;;-0.11;71.65
41688;BME280;27371;42.686;23.362;2023-01-30T11:33:12;162157.13;;;-0.17;71.23
41688;BME280;27371;42.686;23.362;2023-01-30T11:38:16;162170.41;;;-0.12;70.81
41688;BME280;27371;42.686;23.362;2023-01-30T11:40:44;162181.03;;;-0.08;70.65
41688;BME280;27371;42.686;23.362;2023-01-30T11:43:11;162175.72;;;-0.10;70.79
41688;BME280;27371;42.686;23.362;2023-01-30T11:45:45;162186.31;;;-0.06;71.13
41688;BME280;27371;42.686;23.362;2023-01-30T11:48:33;162196.97;;;-0.02;71.07
41688;BME280;27371;42.686;23.362;2023-01-30T11:51:04;162196.97;;;-0.02;70.79
41688;BME280;27371;42.686;23.362;2023-01-30T11:53:37;162210.22;;;0.04;71.12
41688;BME280;27371;42.686;23.362;2023-01-30T11:56:13;162218.19;;;0.07;71.10
41688;BME280;27371;42.686;23.362;2023-01-30T11:58:41;162230.16;;;0.11;70.33
41688;BME280;27371;42.686;23.362;2023-01-30T12:01:11;162228.78;;;0.11;70.19
41688;BME280;27371;42.686;23.362;2023-01-30T12:04:07;162224.84;;;0.09;70.07
41688;BME280;27371;42.686;23.362;2023-01-30T12:06:35;162219.50;;;0.07;70.29
41688;BME280;27371;42.686;23.362;2023-01-30T12:09:02;162212.88;;;0.05;70.45
41688;BME280;27371;42.686;23.362;2023-01-30T12:11:40;162222.13;;;0.08;70.45
41688;BME280;27371;42.686;23.362;2023-01-30T12:17:03;162199.59;;;-0.01;70.30
41688;BME280;27371;42.686;23.362;2023-01-30T12:22:37;162206.22;;;0.02;70.11
41688;BME280;27371;42.686;23.362;2023-01-30T12:25:19;162238.09;;;0.14;70.22
41688;BME280;27371;42.686;23.362;2023-01-30T12:32:58;162239.44;;;0.15;69.20
41688;BME280;27371;42.686;23.362;2023-01-30T12:35:30;162192.94;;;-0.03;69.39
41688;BME280;27371;42.686;23.362;2023-01-30T12:38:09;162255.34;;;0.21;69.50
41688;BME280;27371;42.686;23.362;2023-01-30T12:49:32;162267.31;;;0.26;68.59
41688;BME280;27371;42.686;23.362;2023-01-30T13:03:16;162275.25;;;0.29;68.10
41688;BME280;27371;42.686;23.362;2023-01-30T13:05:51;162276.56;;;0.29;68.60
41688;BME280;27371;42.686;23.362;2023-01-30T13:13:54;162292.50;;;0.35;68.36
41688;BME280;27371;42.686;23.362;2023-01-30T13:19:20;162291.19;;;0.35;68.61
41688;BME280;27371;42.686;23.362;2023-01-30T13:21:57;162299.13;;;0.38;68.78
41688;BME280;27371;42.686;23.362;2023-01-30T13:24:45;162307.09;;;0.41;68.41
41688;BME280;27371;42.686;23.362;2023-01-30T13:27:17;162309.78;;;0.42;68.32
41688;BME280;27371;42.686;23.362;2023-01-30T13:29:44;162285.84;;;0.33;67.50
41688;BME280;27371;42.686;23.362;2023-01-30T13:34:59;162269.94;;;0.27;68.17
41688;BME280;27371;42.686;23.362;2023-01-30T13:37:28;162285.84;;;0.33;68.39
41688;BME280;27371;42.686;23.362;2023-01-30T13:39:57;162285.84;;;0.33;68.33
41688;BME280;27371;42.686;23.362;2023-01-30T13:42:31;162263.31;;;0.24;68.27
41688;BME280;27371;42.686;23.362;2023-01-30T13:45:01;162277.91;;;0.30;68.32
41688;BME280;27371;42.686;23.362;2023-01-30T13:53:02;162267.31;;;0.26;68.30
41688;BME280;27371;42.686;23.362;2023-01-30T13:55:39;162267.31;;;0.26;68.07
41688;BME280;27371;42.686;23.362;2023-01-30T13:59:02;162269.94;;;0.27;67.98
41688;BME280;27371;42.686;23.362;2023-01-30T14:01:23;162243.38;;;0.16;67.94
41688;BME280;27371;42.686;23.362;2023-01-30T14:04:42;162255.34;;;0.21;67.96
41688;BME280;27371;42.686;23.362;2023-01-30T14:09:43;162252.72;;;0.20;67.46
41688;BME280;27371;42.686;23.362;2023-01-30T14:12:21;162257.97;;;0.22;67.37
41688;BME280;27371;42.686;23.362;2023-01-30T14:18:00;162279.22;;;0.30;67.93
41688;BME280;27371;42.686;23.362;2023-01-30T14:20:29;162284.53;;;0.32;67.85
41688;BME280;27371;42.686;23.362;2023-01-30T14:23:04;162283.22;;;0.32;67.56
41688;BME280;27371;42.686;23.362;2023-01-30T14:25:32;162280.59;;;0.31;67.62
41688;BME280;27371;42.686;23.362;2023-01-30T14:32:58;162255.34;;;0.21;67.18
41688;BME280;27371;42.686;23.362;2023-01-30T14:35:26;162236.78;;;0.14;66.88
41688;BME280;27371;42.686;23.362;2023-01-30T14:38:17;162208.91;;;0.03;67.22
41688;BME280;27371;42.686;23.362;2023-01-30T14:41:26;162163.75;;;-0.14;67.38
41688;BME280;27371;42.686;23.362;2023-01-30T14:48:44;162200.97;;;0.00;68.03
41688;BME280;27371;42.686;23.362;2023-01-30T14:51:43;162186.31;;;-0.06;68.31
41688;BME280;27371;42.686;23.362;2023-01-30T14:56:55;162143.91;;;-0.22;68.53
41688;BME280;27371;42.686;23.362;2023-01-30T15:07:47;162101.44;;;-0.38;70.11
41688;BME280;27371;42.686;23.362;2023-01-30T15:15:58;162053.66;;;-0.57;71.24
41688;BME280;27371;42.686;23.362;2023-01-30T15:19:05;162049.66;;;-0.58;72.04
41688;BME280;27371;42.686;23.362;2023-01-30T15:27:21;162016.53;;;-0.71;72.20
41688;BME280;27371;42.686;23.362;2023-01-30T15:30:14;161997.94;;;-0.78;72.31